createdAt,value
2024-01-07T00:02:17.018Z,6.16
2024-01-07T00:05:19.961Z,6.18
2024-01-07T00:08:22.771Z,6.10
2024-01-07T00:11:25.950Z,6.08
2024-01-07T00:14:28.766Z,6.07
2024-01-07T00:17:32.003Z,6.06
2024-01-07T00:20:34.841Z,6.10
2024-01-07T00:23:37.631Z,6.10
2024-01-07T00:26:40.660Z,6.05
2024-01-07T00:29:43.598Z,6.08
2024-01-07T00:32:46.535Z,6.04
2024-01-07T00:35:49.791Z,6.07
2024-01-07T00:38:52.628Z,6.11
2024-01-07T00:41:55.963Z,6.03
2024-01-07T00:44:58.544Z,6.10
2024-01-07T00:48:01.442Z,6.14
2024-01-07T00:51:05.350Z,6.10
2024-01-07T00:54:08.483Z,6.07
2024-01-07T00:57:14.281Z,6.06
2024-01-07T01:00:18.208Z,6.09
2024-01-07T01:03:21.384Z,6.15
2024-01-07T01:06:24.776Z,6.08
2024-01-07T01:09:29.889Z,6.14
2024-01-07T01:12:33.025Z,6.21
2024-01-07T01:15:35.986Z,6.24
2024-01-07T01:18:39.172Z,6.18
2024-01-07T01:21:41.737Z,6.10
2024-01-07T01:24:47.156Z,6.12
2024-01-07T01:27:50.136Z,6.15
2024-01-07T01:30:53.369Z,6.14
2024-01-07T01:33:56.364Z,6.20
2024-01-07T01:36:59.456Z,6.17
2024-01-07T01:40:02.560Z,6.13
2024-01-07T01:43:06.100Z,6.24
2024-01-07T01:46:09.669Z,6.17
2024-01-07T01:49:13.270Z,6.19
2024-01-07T01:52:16.054Z,6.09
2024-01-07T01:55:20.358Z,6.10
2024-01-07T01:58:24.783Z,6.10
2024-01-07T02:01:27.839Z,6.12
2024-01-07T02:04:30.986Z,6.08
2024-01-07T02:07:34.879Z,6.18
2024-01-07T02:10:40.330Z,6.20
2024-01-07T02:13:44.684Z,6.12
2024-01-07T02:16:47.792Z,6.19
2024-01-07T02:19:50.974Z,6.09
2024-01-07T02:22:54.671Z,6.04
2024-01-07T02:25:57.685Z,6.16
2024-01-07T02:29:00.527Z,6.06
2024-01-07T02:32:04.008Z,6.09
2024-01-07T02:35:07.573Z,6.15
2024-01-07T02:38:10.518Z,6.00
2024-01-07T02:41:13.388Z,5.97
2024-01-07T02:44:16.746Z,6.02
2024-01-07T02:47:19.470Z,5.96
2024-01-07T02:50:22.362Z,6.04
2024-01-07T02:53:25.182Z,6.04
2024-01-07T02:56:28.292Z,5.96
2024-01-07T02:59:30.853Z,5.99
2024-01-07T03:02:33.936Z,5.95
2024-01-07T03:05:36.720Z,5.89
2024-01-07T03:08:39.852Z,6.00
2024-01-07T03:11:42.984Z,5.99
2024-01-07T03:14:45.880Z,6.03
2024-01-07T03:17:48.734Z,5.96
2024-01-07T03:20:51.815Z,5.94
2024-01-07T03:23:54.726Z,5.99
2024-01-07T03:26:57.769Z,5.96
2024-01-07T03:30:00.617Z,5.94
2024-01-07T03:33:03.985Z,5.87
2024-01-07T03:36:14.840Z,5.93
2024-01-07T03:39:17.837Z,5.91
2024-01-07T03:42:20.697Z,5.88
2024-01-07T03:45:24.053Z,5.88
2024-01-07T03:48:27.871Z,5.94
2024-01-07T03:51:30.938Z,6.01
2024-01-07T03:54:33.887Z,5.92
2024-01-07T03:57:37.110Z,5.90
2024-01-07T04:00:39.966Z,5.88
2024-01-07T04:03:43.147Z,5.87
2024-01-07T04:06:46.120Z,5.93
2024-01-07T04:09:49.073Z,5.99
2024-01-07T04:12:51.688Z,5.93
2024-01-07T04:15:54.928Z,5.94
2024-01-07T04:18:57.746Z,5.96
2024-01-07T04:22:00.625Z,5.96
2024-01-07T04:25:04.310Z,6.01
2024-01-07T04:28:07.375Z,5.96
2024-01-07T04:31:10.517Z,5.94
2024-01-07T04:34:13.890Z,6.01
2024-01-07T04:37:17.305Z,5.95
2024-01-07T04:40:20.521Z,5.99
2024-01-07T04:43:23.347Z,5.95
2024-01-07T04:46:26.207Z,5.97
2024-01-07T04:49:29.150Z,5.94
2024-01-07T04:52:31.940Z,5.96
2024-01-07T04:55:35.129Z,6.02
2024-01-07T04:58:37.980Z,6.04
2024-01-07T05:01:41.009Z,6.05
2024-01-07T05:04:44.375Z,5.99
2024-01-07T05:07:47.153Z,6.01
2024-01-07T05:10:50.249Z,6.02
2024-01-07T05:13:55.164Z,6.02
2024-01-07T05:16:58.327Z,6.01
2024-01-07T05:20:01.348Z,6.01
2024-01-07T05:23:05.132Z,5.99
2024-01-07T05:26:07.625Z,5.96
2024-01-07T05:29:10.805Z,5.99
2024-01-07T05:32:13.316Z,5.99
2024-01-07T05:35:16.423Z,6.01
2024-01-07T05:38:18.931Z,6.01
2024-01-07T05:41:22.043Z,6.07
2024-01-07T05:44:26.517Z,6.12
2024-01-07T05:47:31.300Z,6.14
2024-01-07T05:50:34.776Z,6.08
2024-01-07T05:53:38.204Z,6.06
2024-01-07T05:56:43.925Z,6.10
2024-01-07T05:59:46.871Z,6.14
2024-01-07T06:02:49.747Z,6.13
2024-01-07T06:05:52.665Z,6.15
2024-01-07T06:08:55.402Z,6.22
2024-01-07T06:11:58.478Z,6.16
2024-01-07T06:15:01.343Z,6.17
2024-01-07T06:18:04.842Z,6.14
2024-01-07T06:21:07.730Z,6.13
2024-01-07T06:24:11.262Z,6.15
2024-01-07T06:27:14.729Z,6.15
2024-01-07T06:30:20.263Z,6.16
2024-01-07T06:33:23.094Z,6.20
2024-01-07T06:36:26.397Z,6.18
2024-01-07T06:39:29.280Z,6.25
2024-01-07T06:42:32.492Z,6.26
2024-01-07T06:45:35.337Z,6.24
2024-01-07T06:48:38.669Z,6.20
2024-01-07T06:51:41.776Z,6.17
2024-01-07T06:54:44.695Z,6.21
2024-01-07T06:57:47.282Z,6.21
2024-01-07T07:00:50.272Z,6.23
2024-01-07T07:03:53.180Z,6.24
2024-01-07T07:06:58.493Z,6.26
2024-01-07T07:10:01.297Z,6.22
2024-01-07T07:13:04.362Z,6.25
2024-01-07T07:16:08.306Z,6.29
2024-01-07T07:19:15.680Z,6.27
2024-01-07T07:22:18.836Z,6.28
2024-01-07T07:25:21.676Z,6.32
2024-01-07T07:28:24.353Z,6.34
2024-01-07T07:31:27.500Z,6.33
2024-01-07T07:34:30.368Z,6.37
2024-01-07T07:37:33.529Z,6.33
2024-01-07T07:40:36.398Z,6.36
2024-01-07T07:43:39.257Z,6.25
2024-01-07T07:46:42.321Z,6.31
2024-01-07T07:49:45.520Z,6.35
2024-01-07T07:52:48.410Z,6.41
2024-01-07T07:55:51.715Z,6.36
2024-01-07T07:58:55.130Z,6.40
2024-01-07T08:01:58.125Z,6.44
2024-01-07T08:05:01.243Z,6.50
2024-01-07T08:08:04.534Z,6.51
2024-01-07T08:11:09.915Z,6.46
2024-01-07T08:14:12.800Z,6.53
2024-01-07T08:17:16.070Z,6.55
2024-01-07T08:20:19.117Z,6.59
2024-01-07T08:23:22.370Z,6.55
2024-01-07T08:26:25.216Z,6.61
2024-01-07T08:29:28.316Z,6.57
2024-01-07T08:32:30.988Z,6.62
2024-01-07T08:35:33.939Z,6.57
2024-01-07T08:38:36.660Z,6.63
2024-01-07T08:41:39.675Z,6.65
2024-01-07T08:44:44.173Z,6.61
2024-01-07T08:47:47.393Z,6.68
2024-01-07T08:50:51.235Z,6.63
2024-01-07T08:53:54.110Z,6.64
2024-01-07T08:56:56.661Z,6.67
2024-01-07T08:59:59.460Z,6.74
2024-01-07T09:03:02.946Z,6.71
2024-01-07T09:06:06.423Z,6.78
2024-01-07T09:09:09.491Z,6.77
2024-01-07T09:12:12.867Z,6.74
2024-01-07T09:15:15.688Z,6.68
2024-01-07T09:18:19.874Z,6.65
2024-01-07T09:21:24.259Z,6.63
2024-01-07T09:24:27.562Z,6.67
2024-01-07T09:27:30.982Z,6.73
2024-01-07T09:30:34.110Z,6.75
2024-01-07T09:33:36.999Z,6.80
2024-01-07T09:36:40.028Z,6.73
2024-01-07T09:39:42.848Z,6.78
2024-01-07T09:42:46.042Z,6.83
2024-01-07T09:45:51.522Z,6.84
2024-01-07T09:48:54.962Z,6.85
2024-01-07T09:52:04.178Z,6.87
2024-01-07T09:55:10.820Z,6.88
2024-01-07T09:58:13.670Z,6.85
2024-01-07T10:01:21.169Z,6.83
2024-01-07T10:04:25.708Z,6.92
2024-01-07T10:07:28.589Z,6.87
2024-01-07T10:10:31.658Z,6.87
2024-01-07T10:13:34.387Z,6.87
2024-01-07T10:16:37.818Z,6.87
2024-01-07T10:19:40.653Z,6.93
2024-01-07T10:22:50.746Z,6.93
2024-01-07T10:25:56.358Z,7.10
2024-01-07T10:28:59.217Z,7.05
2024-01-07T10:32:06.425Z,6.99
2024-01-07T10:35:13.767Z,6.96
2024-01-07T10:38:16.808Z,6.96
2024-01-07T10:41:20.513Z,6.83
2024-01-07T10:44:24.117Z,6.75
2024-01-07T10:47:31.764Z,6.72
2024-01-07T10:50:35.113Z,6.68
2024-01-07T10:53:42.752Z,6.79
2024-01-07T10:56:49.873Z,6.78
2024-01-07T10:59:55.477Z,6.84
2024-01-07T11:03:18.939Z,6.95
2024-01-07T11:06:24.971Z,6.82
2024-01-07T11:09:30.794Z,6.83
2024-01-07T11:12:34.486Z,6.87
2024-01-07T11:15:49.208Z,6.89
2024-01-07T11:18:52.866Z,6.73
2024-01-07T11:22:31.241Z,6.69
2024-01-07T11:25:38.241Z,6.61
2024-01-07T11:28:47.793Z,6.50
2024-01-07T11:31:51.898Z,6.42
2024-01-07T11:34:55.565Z,6.20
2024-01-07T11:37:59.046Z,6.06
2024-01-07T11:41:02.096Z,5.98
2024-01-07T11:44:07.509Z,6.00
2024-01-07T11:47:10.304Z,5.94
2024-01-07T11:50:13.366Z,5.80
2024-01-07T11:53:16.786Z,5.71
2024-01-07T11:56:19.981Z,5.66
2024-01-07T11:59:22.554Z,5.56
2024-01-07T12:02:27.228Z,5.57
2024-01-07T12:05:31.321Z,5.52
2024-01-07T12:08:34.094Z,5.45
2024-01-07T12:11:39.380Z,5.37
2024-01-07T12:14:43.168Z,5.31
2024-01-07T12:17:57.549Z,5.30
2024-01-07T12:21:01.521Z,5.12
2024-01-07T12:24:05.532Z,5.09
2024-01-07T12:27:08.403Z,5.08
2024-01-07T12:30:11.720Z,5.08
2024-01-07T12:33:20.560Z,5.00
2024-01-07T12:36:24.298Z,4.97
2024-01-07T12:39:28.592Z,4.94
2024-01-07T12:42:32.378Z,4.94
2024-01-07T12:45:35.563Z,4.94
2024-01-07T12:48:38.921Z,4.80
2024-01-07T12:51:41.596Z,4.75
2024-01-07T12:54:44.529Z,4.54
2024-01-07T12:57:47.139Z,4.49
2024-01-07T13:00:50.472Z,4.45
2024-01-07T13:03:53.530Z,4.40
2024-01-07T13:06:56.945Z,4.35
2024-01-07T13:10:00.051Z,4.31
2024-01-07T13:13:08.267Z,4.29
2024-01-07T13:16:15.326Z,4.40
2024-01-07T13:19:18.760Z,4.46
2024-01-07T13:22:21.460Z,4.48
2024-01-07T13:25:24.354Z,4.33
2024-01-07T13:28:27.130Z,4.27
2024-01-07T13:31:31.063Z,4.31
2024-01-07T13:34:34.289Z,4.32
2024-01-07T13:37:38.445Z,4.34
2024-01-07T13:40:41.413Z,4.26
2024-01-07T13:43:44.960Z,4.12
2024-01-07T13:46:48.705Z,4.16
2024-01-07T13:49:51.875Z,4.14
2024-01-07T13:52:54.538Z,4.03
2024-01-07T13:55:57.651Z,4.02
2024-01-07T13:59:00.668Z,3.90
2024-01-07T14:02:06.215Z,3.87
2024-01-07T14:05:11.505Z,3.77
2024-01-07T14:08:14.673Z,3.76
2024-01-07T14:11:18.746Z,3.70
2024-01-07T14:14:21.656Z,3.56
2024-01-07T14:17:24.605Z,3.54
2024-01-07T14:20:29.648Z,3.53
2024-01-07T14:23:34.791Z,3.45
2024-01-07T14:26:37.409Z,3.38
2024-01-07T14:29:40.364Z,3.37
2024-01-07T14:32:43.327Z,3.28
2024-01-07T14:35:46.195Z,3.23
2024-01-07T14:38:48.904Z,3.20
2024-01-07T14:41:52.581Z,3.10
2024-01-07T14:44:55.202Z,3.11
2024-01-07T14:47:58.558Z,3.05
2024-01-07T14:51:01.870Z,3.11
2024-01-07T14:54:05.707Z,2.92
2024-01-07T14:57:10.031Z,2.95
2024-01-07T15:00:14.627Z,2.95
2024-01-07T15:03:18.448Z,2.91
2024-01-07T15:06:21.797Z,2.88
2024-01-07T15:09:24.438Z,2.80
2024-01-07T15:12:36.461Z,2.75
2024-01-07T15:15:39.513Z,2.75
2024-01-07T15:18:42.790Z,2.74
2024-01-07T15:21:45.821Z,2.72
2024-01-07T15:24:48.823Z,2.64
2024-01-07T15:27:52.996Z,2.60
2024-01-07T15:30:57.212Z,2.63
2024-01-07T15:33:59.983Z,2.66
2024-01-07T15:37:03.355Z,2.63
2024-01-07T15:40:07.105Z,2.59
2024-01-07T15:43:13.587Z,2.48
2024-01-07T15:46:16.551Z,2.55
2024-01-07T15:49:20.008Z,2.49
2024-01-07T15:52:23.430Z,2.47
2024-01-07T15:55:27.846Z,2.49
2024-01-07T15:58:35.505Z,2.46
2024-01-07T16:01:38.843Z,2.45
2024-01-07T16:04:42.753Z,2.29
2024-01-07T16:07:45.471Z,2.39
2024-01-07T16:10:48.714Z,2.31
2024-01-07T16:13:51.581Z,2.33
2024-01-07T16:16:55.368Z,2.29
2024-01-07T16:19:58.140Z,2.18
2024-01-07T16:23:02.113Z,2.23
2024-01-07T16:26:06.304Z,2.19
2024-01-07T16:29:10.075Z,2.05
2024-01-07T16:32:13.768Z,2.12
2024-01-07T16:35:17.012Z,2.16
2024-01-07T16:38:20.712Z,2.15
2024-01-07T16:41:23.906Z,2.02
2024-01-07T16:44:27.550Z,2.01
2024-01-07T16:47:30.522Z,1.89
2024-01-07T16:50:34.318Z,1.95
2024-01-07T16:53:37.402Z,1.93
2024-01-07T16:56:42.415Z,1.88
2024-01-07T16:59:45.995Z,1.92
2024-01-07T17:02:48.678Z,1.97
2024-01-07T17:05:52.170Z,1.89
2024-01-07T17:08:55.141Z,1.85
2024-01-07T17:11:58.590Z,1.86
2024-01-07T17:15:03.752Z,1.83
2024-01-07T17:18:07.010Z,1.75
2024-01-07T17:21:09.952Z,1.74
2024-01-07T17:24:13.144Z,1.68
2024-01-07T17:27:16.192Z,1.69
2024-01-07T17:30:20.244Z,1.68
2024-01-07T17:33:25.076Z,1.54
2024-01-07T17:36:31.295Z,1.57
2024-01-07T17:39:34.661Z,1.55
2024-01-07T17:42:38.974Z,1.54
2024-01-07T17:45:44.325Z,1.43
2024-01-07T17:48:47.559Z,1.50
2024-01-07T17:51:50.150Z,1.46
2024-01-07T17:54:53.317Z,1.49
2024-01-07T17:57:56.297Z,1.55
2024-01-07T18:00:59.416Z,1.41
2024-01-07T18:04:02.430Z,1.36
2024-01-07T18:07:05.121Z,1.41
2024-01-07T18:10:11.809Z,1.40
2024-01-07T18:13:16.943Z,1.32
2024-01-07T18:16:19.833Z,1.32
2024-01-07T18:19:22.615Z,1.35
2024-01-07T18:22:25.838Z,1.35
2024-01-07T18:25:28.440Z,1.23
2024-01-07T18:28:34.580Z,1.23
2024-01-07T18:31:44.964Z,1.27
2024-01-07T18:34:48.248Z,1.26
2024-01-07T18:37:52.268Z,1.25
2024-01-07T18:40:55.635Z,1.26
2024-01-07T18:43:58.615Z,1.08
2024-01-07T18:47:01.535Z,1.11
2024-01-07T18:50:06.167Z,1.13
2024-01-07T18:53:09.471Z,1.17
2024-01-07T18:56:12.152Z,1.08
2024-01-07T18:59:15.506Z,1.04
2024-01-07T19:02:18.279Z,1.12
2024-01-07T19:05:21.779Z,1.14
2024-01-07T19:08:24.564Z,1.07
2024-01-07T19:11:27.619Z,1.13
2024-01-07T19:14:34.057Z,1.11
2024-01-07T19:17:38.922Z,1.11
2024-01-07T19:20:43.097Z,1.09
2024-01-07T19:23:46.197Z,1.07
2024-01-07T19:26:49.083Z,1.00
2024-01-07T19:29:53.667Z,1.00
2024-01-07T19:32:56.625Z,0.97
2024-01-07T19:35:59.905Z,0.95
2024-01-07T19:39:07.442Z,0.98
2024-01-07T19:42:11.109Z,0.94
2024-01-07T19:45:13.881Z,0.90
2024-01-07T19:48:16.862Z,0.95
2024-01-07T19:51:23.128Z,0.97
2024-01-07T19:54:33.910Z,1.00
2024-01-07T19:57:36.374Z,0.91
2024-01-07T20:00:39.268Z,1.02
2024-01-07T20:03:42.965Z,0.98
2024-01-07T20:06:48.234Z,1.02
2024-01-07T20:09:51.287Z,0.99
2024-01-07T20:12:58.812Z,0.94
2024-01-07T20:16:03.976Z,0.99
2024-01-07T20:19:10.442Z,0.96
2024-01-07T20:22:14.556Z,0.90
2024-01-07T20:25:17.820Z,0.87
2024-01-07T20:28:22.461Z,0.95
2024-01-07T20:31:25.439Z,0.90
2024-01-07T20:34:28.892Z,0.86
2024-01-07T20:37:34.411Z,0.81
2024-01-07T20:40:39.242Z,0.77
2024-01-07T20:43:43.909Z,0.80
2024-01-07T20:46:48.602Z,0.74
2024-01-07T20:49:57.925Z,0.73
2024-01-07T20:53:01.238Z,0.66
2024-01-07T20:56:04.171Z,0.68
2024-01-07T20:59:08.425Z,0.58
2024-01-07T21:02:13.036Z,0.61
2024-01-07T21:05:19.893Z,0.64
2024-01-07T21:08:26.055Z,0.55
2024-01-07T21:11:29.175Z,0.50
2024-01-07T21:14:32.415Z,0.62
2024-01-07T21:17:39.712Z,0.57
2024-01-07T21:20:45.654Z,0.52
2024-01-07T21:23:49.685Z,0.50
2024-01-07T21:26:52.703Z,0.52
2024-01-07T21:29:56.049Z,0.42
2024-01-07T21:32:58.905Z,0.46
2024-01-07T21:36:02.017Z,0.53
2024-01-07T21:39:04.697Z,0.44
2024-01-07T21:42:07.899Z,0.33
2024-01-07T21:45:35.897Z,0.38
2024-01-07T21:48:42.387Z,0.46
2024-01-07T21:51:45.422Z,0.40
2024-01-07T21:54:48.319Z,0.39
2024-01-07T21:57:51.278Z,0.38
2024-01-07T22:00:57.314Z,0.34
2024-01-07T22:04:01.538Z,0.36
2024-01-07T22:07:04.563Z,0.35
2024-01-07T22:10:08.415Z,0.35
2024-01-07T22:13:11.256Z,0.40
2024-01-07T22:16:14.841Z,0.34
2024-01-07T22:19:17.813Z,0.42
2024-01-07T22:22:20.980Z,0.34
2024-01-07T22:25:23.751Z,0.42
2024-01-07T22:28:27.513Z,0.40
2024-01-07T22:31:30.389Z,0.32
2024-01-07T22:34:33.445Z,0.39
2024-01-07T22:37:38.187Z,0.31
2024-01-07T22:40:41.439Z,0.36
2024-01-07T22:43:46.846Z,0.25
2024-01-07T22:46:51.719Z,0.27
2024-01-07T22:49:54.520Z,0.27
2024-01-07T22:52:58.159Z,0.19
2024-01-07T22:56:04.961Z,0.12
2024-01-07T22:59:12.164Z,0.10
2024-01-07T23:02:16.396Z,0.15
2024-01-07T23:05:19.776Z,0.16
2024-01-07T23:08:23.385Z,0.04
2024-01-07T23:11:27.419Z,0.11
2024-01-07T23:14:33.799Z,0.08
2024-01-07T23:17:41.141Z,0.12
2024-01-07T23:20:47.157Z,0.19
2024-01-07T23:23:51.027Z,0.13
2024-01-07T23:26:53.847Z,0.14
2024-01-07T23:29:59.743Z,0.16
2024-01-07T23:33:13.284Z,0.13
2024-01-07T23:36:16.505Z,0.11
2024-01-07T23:39:21.810Z,0.07
2024-01-07T23:42:26.132Z,0.20
2024-01-07T23:45:28.970Z,0.15
2024-01-07T23:48:32.504Z,0.02
2024-01-07T23:51:35.635Z,0.06
2024-01-07T23:54:38.442Z,0.05
2024-01-07T23:57:42.038Z,0.03
